aviador You're here:

KEUG Decoded Metar

EUGENE in OR, USA
Report Time2018-02-25 14:54:00
UTC Time2018-02-25 15:36:33
Flight Rules mvfr MVFR
Wind190° at 18 kt
W.Decomp.*RWY 16: 17.5 kt HW 4.4 kt RCW
W.Rank190° ranks 3
Current wind is above 190° avg. (6.9)
Visibility9999 m
Phenomena:Light Rain
Clouds:Scattered 024 Hf
Broken 029 Hf
Overcast 040 Hf
Expected CloudBase > 400 ft AGL from Temp-Dew spread
Ceiling2,900 ft
Temp04°C (ISA -10)
Dew Point03°C (93% RH)
AAT-4.0°C
QNH1022 hPa
Density Alt-1,070 ft
Elevation374 ft
Report Wrong Elevation
Raw Report
KEUG 251454Z 19018KT 9SM -RA SCT024 BKN029 OVC040 04/03 A3017 RMK
AO2 RAE02B28 SLP218 P0002 60004 T00390028 56016 $=

Extra information for KEUG:More info

Metar Taf Metar & Taf Last 4 Metars F.Rules Stats Wind Profile Meteogram Temp Stats Airport Information Weather charts Add Link Nearby VenuesMetar ALERT Operation Metar Decoded Social comments

AIRNAV info for KEUG